Pennersville, Pennsylvania
Current Conditions -  °F | °C
As of 2:53 AM on Thursday 27 Nov 2014 (Local Time) from KRYT Reporting Station
Overcast Overcast  
Wind Chill: 33°   Ceiling: 7000
Heat Index: 33°   Visibility: 10mi
Dew Point: 29°   Wind: 3mph
Humidity: 85%   Direction: 230°SW
Pressure: 29.98"   Gusts: NA
Location:  39.7777°N, 77.5693°W
Report Text: KRYT 270753Z AUTO 23003KT 10SM FEW014 OVC070 01/M02 A2998 RMK AO2 SLP167 T00061017 $
Loading
Personal Weather Stations






























Interactive Weather Map New forecast layout! Learn more

10-Day Weather Forecast

Advertisements
Track Severe Weather on mobile